sensor_id;sensor_type;location;lat;lon;timestamp;pressure;altitude;pressure_sealevel;temperature;humidity
39435;BME280;30098;51.880;-0.518;2022-10-19T00:00:23;101769.00;;;18.45;45.65
39435;BME280;30098;51.880;-0.518;2022-10-19T00:02:48;101761.66;;;18.46;45.49
39435;BME280;30098;51.880;-0.518;2022-10-19T00:05:14;101762.72;;;18.45;45.48
39435;BME280;30098;51.880;-0.518;2022-10-19T00:07:39;101745.28;;;18.35;45.65
39435;BME280;30098;51.880;-0.518;2022-10-19T00:10:05;101752.91;;;18.44;45.55
39435;BME280;30098;51.880;-0.518;2022-10-19T00:12:31;101737.88;;;18.36;45.51
39435;BME280;30098;51.880;-0.518;2022-10-19T00:14:56;101748.25;;;18.44;45.31
39435;BME280;30098;51.880;-0.518;2022-10-19T00:17:22;101746.63;;;18.43;45.61
39435;BME280;30098;51.880;-0.518;2022-10-19T00:19:47;101743.09;;;18.42;45.71
39435;BME280;30098;51.880;-0.518;2022-10-19T00:22:13;101736.00;;;18.41;45.44
39435;BME280;30098;51.880;-0.518;2022-10-19T00:24:38;101734.91;;;18.42;45.66
39435;BME280;30098;51.880;-0.518;2022-10-19T00:27:04;101732.16;;;18.42;45.56
39435;BME280;30098;51.880;-0.518;2022-10-19T00:29:31;101722.34;;;18.41;45.77
39435;BME280;30098;51.880;-0.518;2022-10-19T00:31:56;101717.72;;;18.42;46.02
39435;BME280;30098;51.880;-0.518;2022-10-19T00:34:22;101709.53;;;18.42;45.73
39435;BME280;30098;51.880;-0.518;2022-10-19T00:36:47;101703.25;;;18.41;45.69
39435;BME280;30098;51.880;-0.518;2022-10-19T00:39:15;101709.78;;;18.40;45.58
39435;BME280;30098;51.880;-0.518;2022-10-19T00:41:42;101704.34;;;18.40;45.68
39435;BME280;30098;51.880;-0.518;2022-10-19T00:46:41;101680.06;;;18.23;45.62
39435;BME280;30098;51.880;-0.518;2022-10-19T00:49:18;101704.34;;;18.40;45.72
39435;BME280;30098;51.880;-0.518;2022-10-19T00:51:48;101674.91;;;18.22;45.73
39435;BME280;30098;51.880;-0.518;2022-10-19T00:54:14;101705.41;;;18.39;45.39
39435;BME280;30098;51.880;-0.518;2022-10-19T00:56:43;101704.63;;;18.39;45.62
39435;BME280;30098;51.880;-0.518;2022-10-19T00:59:11;101685.53;;;18.34;45.40
39435;BME280;30098;51.880;-0.518;2022-10-19T01:01:38;101682.81;;;18.34;45.56
39435;BME280;30098;51.880;-0.518;2022-10-19T01:04:04;101684.97;;;18.37;45.60
39435;BME280;30098;51.880;-0.518;2022-10-19T01:06:30;101661.25;;;18.22;45.64
39435;BME280;30098;51.880;-0.518;2022-10-19T01:08:56;101687.69;;;18.37;45.52
39435;BME280;30098;51.880;-0.518;2022-10-19T01:19:09;101644.66;;;18.13;45.65
39435;BME280;30098;51.880;-0.518;2022-10-19T01:21:47;101668.88;;;18.35;45.82
39435;BME280;30098;51.880;-0.518;2022-10-19T01:36:03;101672.97;;;18.33;45.65
39435;BME280;30098;51.880;-0.518;2022-10-19T01:38:52;101669.41;;;18.32;45.86
39435;BME280;30098;51.880;-0.518;2022-10-19T01:42:14;101668.63;;;18.32;45.47
39435;BME280;30098;51.880;-0.518;2022-10-19T01:46:42;101654.16;;;18.31;45.91
39435;BME280;30098;51.880;-0.518;2022-10-19T01:49:16;101657.69;;;18.32;45.97
39435;BME280;30098;51.880;-0.518;2022-10-19T01:51:48;101625.56;;;18.13;45.78
39435;BME280;30098;51.880;-0.518;2022-10-19T01:54:16;101651.69;;;18.30;45.96
39435;BME280;30098;51.880;-0.518;2022-10-19T01:56:44;101647.06;;;18.25;45.90
39435;BME280;30098;51.880;-0.518;2022-10-19T01:59:13;101650.88;;;18.29;45.78
39435;BME280;30098;51.880;-0.518;2022-10-19T02:01:42;101633.72;;;18.23;45.72
39435;BME280;30098;51.880;-0.518;2022-10-19T02:04:12;101641.63;;;18.30;45.79
39435;BME280;30098;51.880;-0.518;2022-10-19T02:06:40;101642.72;;;18.29;45.69
39435;BME280;30098;51.880;-0.518;2022-10-19T02:09:05;101639.97;;;18.29;45.85
39435;BME280;30098;51.880;-0.518;2022-10-19T02:11:32;101641.88;;;18.29;45.95
39435;BME280;30098;51.880;-0.518;2022-10-19T02:14:03;101643.78;;;18.28;46.03
39435;BME280;30098;51.880;-0.518;2022-10-19T02:16:36;101629.34;;;18.28;45.55
39435;BME280;30098;51.880;-0.518;2022-10-19T02:19:05;101626.63;;;18.28;45.59
39435;BME280;30098;51.880;-0.518;2022-10-19T02:21:33;101594.75;;;18.07;45.54
39435;BME280;30098;51.880;-0.518;2022-10-19T02:23:59;101616.81;;;18.27;45.92
39435;BME280;30098;51.880;-0.518;2022-10-19T02:26:25;101606.69;;;18.27;45.92
39435;BME280;30098;51.880;-0.518;2022-10-19T02:28:53;101608.63;;;18.27;45.98
39435;BME280;30098;51.880;-0.518;2022-10-19T02:31:19;101486.03;;;17.44;45.66
39435;BME280;30098;51.880;-0.518;2022-10-19T02:33:45;101607.78;;;18.26;46.01
39435;BME280;30098;51.880;-0.518;2022-10-19T02:36:10;101603.16;;;18.27;45.64
39435;BME280;30098;51.880;-0.518;2022-10-19T02:38:36;101599.88;;;18.24;45.84
39435;BME280;30098;51.880;-0.518;2022-10-19T02:43:27;101584.31;;;18.25;45.61
39435;BME280;30098;51.880;-0.518;2022-10-19T02:46:09;101568.00;;;18.15;45.90
39435;BME280;30098;51.880;-0.518;2022-10-19T02:48:38;101586.25;;;18.24;46.00
39435;BME280;30098;51.880;-0.518;2022-10-19T02:51:05;101575.34;;;18.24;45.73
39435;BME280;30098;51.880;-0.518;2022-10-19T02:53:30;101558.47;;;18.12;46.01
39435;BME280;30098;51.880;-0.518;2022-10-19T02:55:56;101494.16;;;17.70;45.71
39435;BME280;30098;51.880;-0.518;2022-10-19T02:58:21;101541.03;;;18.03;45.89
39435;BME280;30098;51.880;-0.518;2022-10-19T03:00:47;101571.53;;;18.20;45.79
39435;BME280;30098;51.880;-0.518;2022-10-19T03:03:12;101570.16;;;18.23;45.83
39435;BME280;30098;51.880;-0.518;2022-10-19T03:05:38;101568.53;;;18.22;45.74
39435;BME280;30098;51.880;-0.518;2022-10-19T03:08:03;101558.16;;;18.24;45.69
39435;BME280;30098;51.880;-0.518;2022-10-19T03:10:29;101560.34;;;18.22;45.82
39435;BME280;30098;51.880;-0.518;2022-10-19T03:12:56;101546.72;;;18.22;45.64
39435;BME280;30098;51.880;-0.518;2022-10-19T03:15:22;101532.25;;;18.16;46.05
39435;BME280;30098;51.880;-0.518;2022-10-19T03:17:54;101543.97;;;18.22;45.73
39435;BME280;30098;51.880;-0.518;2022-10-19T03:20:20;101547.50;;;18.22;45.76
39435;BME280;30098;51.880;-0.518;2022-10-19T03:22:45;101541.25;;;18.22;45.68
39435;BME280;30098;51.880;-0.518;2022-10-19T03:25:11;101541.25;;;18.22;45.81
39435;BME280;30098;51.880;-0.518;2022-10-19T03:27:36;101543.16;;;18.21;45.97
39435;BME280;30098;51.880;-0.518;2022-10-19T03:30:03;101547.00;;;18.20;45.74
39435;BME280;30098;51.880;-0.518;2022-10-19T03:32:28;101542.34;;;18.21;45.74
39435;BME280;30098;51.880;-0.518;2022-10-19T03:34:54;101547.00;;;18.20;45.40
39435;BME280;30098;51.880;-0.518;2022-10-19T03:37:19;101543.44;;;18.20;45.88
39435;BME280;30098;51.880;-0.518;2022-10-19T03:39:44;101539.63;;;18.21;45.96
39435;BME280;30098;51.880;-0.518;2022-10-19T03:42:10;101537.16;;;18.19;45.69
39435;BME280;30098;51.880;-0.518;2022-10-19T03:44:35;101444.06;;;17.60;45.50
39435;BME280;30098;51.880;-0.518;2022-10-19T03:47:01;101536.34;;;18.19;45.78
39435;BME280;30098;51.880;-0.518;2022-10-19T03:49:26;101533.59;;;18.19;45.64
39435;BME280;30098;51.880;-0.518;2022-10-19T03:51:52;101531.72;;;18.19;45.80
39435;BME280;30098;51.880;-0.518;2022-10-19T03:54:17;101526.00;;;18.16;45.75
39435;BME280;30098;51.880;-0.518;2022-10-19T03:56:43;101523.78;;;18.18;45.98
39435;BME280;30098;51.880;-0.518;2022-10-19T03:59:13;101527.34;;;18.18;45.68
39435;BME280;30098;51.880;-0.518;2022-10-19T04:01:42;101490.63;;;17.95;45.72
39435;BME280;30098;51.880;-0.518;2022-10-19T04:04:14;101523.78;;;18.18;45.69
39435;BME280;30098;51.880;-0.518;2022-10-19T04:06:42;101517.53;;;18.17;45.69
39435;BME280;30098;51.880;-0.518;2022-10-19T04:09:10;101519.47;;;18.17;45.85
39435;BME280;30098;51.880;-0.518;2022-10-19T04:11:37;101503.91;;;18.17;45.85
39435;BME280;30098;51.880;-0.518;2022-10-19T04:14:03;101488.94;;;18.09;46.00
39435;BME280;30098;51.880;-0.518;2022-10-19T04:16:29;101494.91;;;18.17;45.76
39435;BME280;30098;51.880;-0.518;2022-10-19T04:18:56;101492.19;;;18.17;45.82
39435;BME280;30098;51.880;-0.518;2022-10-19T04:23:55;101462.50;;;18.00;45.82
39435;BME280;30098;51.880;-0.518;2022-10-19T04:26:21;101491.34;;;18.16;45.96
39435;BME280;30098;51.880;-0.518;2022-10-19T04:28:46;101486.97;;;18.15;46.05
39435;BME280;30098;51.880;-0.518;2022-10-19T04:31:12;101500.63;;;18.15;45.76
39435;BME280;30098;51.880;-0.518;2022-10-19T04:33:38;101498.72;;;18.16;45.94
39435;BME280;30098;51.880;-0.518;2022-10-19T04:36:06;101499.81;;;18.15;45.73
39435;BME280;30098;51.880;-0.518;2022-10-19T04:38:32;101466.88;;;17.96;45.74
39435;BME280;30098;51.880;-0.518;2022-10-19T04:41:09;101496.25;;;18.14;46.11
39435;BME280;30098;51.880;-0.518;2022-10-19T04:43:36;101490.81;;;18.14;46.01
39435;BME280;30098;51.880;-0.518;2022-10-19T04:46:22;101494.38;;;18.15;45.92
39435;BME280;30098;51.880;-0.518;2022-10-19T04:48:48;101502.53;;;18.15;45.66
39435;BME280;30098;51.880;-0.518;2022-10-19T04:51:14;101496.25;;;18.14;45.98
39435;BME280;30098;51.880;-0.518;2022-10-19T04:53:41;101495.44;;;18.14;45.54
39435;BME280;30098;51.880;-0.518;2022-10-19T04:56:10;101491.09;;;18.13;45.92
39435;BME280;30098;51.880;-0.518;2022-10-19T04:58:36;101493.00;;;18.12;46.15
39435;BME280;30098;51.880;-0.518;2022-10-19T05:01:10;101482.94;;;18.07;45.86
39435;BME280;30098;51.880;-0.518;2022-10-19T05:03:36;101484.03;;;18.06;45.97
39435;BME280;30098;51.880;-0.518;2022-10-19T05:06:02;101489.44;;;18.12;46.10
39435;BME280;30098;51.880;-0.518;2022-10-19T05:08:27;101482.09;;;18.12;45.78
39435;BME280;30098;51.880;-0.518;2022-10-19T05:10:53;101455.19;;;17.95;45.92
39435;BME280;30098;51.880;-0.518;2022-10-19T05:13:18;101468.72;;;18.10;46.02
39435;BME280;30098;51.880;-0.518;2022-10-19T05:15:54;101458.41;;;18.07;46.14
39435;BME280;30098;51.880;-0.518;2022-10-19T05:18:20;101460.53;;;18.10;46.11
39435;BME280;30098;51.880;-0.518;2022-10-19T05:20:45;101351.47;;;17.45;46.30
39435;BME280;30098;51.880;-0.518;2022-10-19T05:23:11;101446.91;;;18.10;45.82
39435;BME280;30098;51.880;-0.518;2022-10-19T05:25:36;101432.75;;;18.03;46.13
39435;BME280;30098;51.880;-0.518;2022-10-19T05:28:01;101443.41;;;18.05;45.93
39435;BME280;30098;51.880;-0.518;2022-10-19T05:30:27;101450.75;;;18.09;45.85
39435;BME280;30098;51.880;-0.518;2022-10-19T05:32:52;101444.22;;;18.05;46.21
39435;BME280;30098;51.880;-0.518;2022-10-19T05:35:18;101442.56;;;18.09;45.93
39435;BME280;30098;51.880;-0.518;2022-10-19T05:37:43;101444.47;;;18.09;45.75
39435;BME280;30098;51.880;-0.518;2022-10-19T05:40:09;101446.41;;;18.08;46.15
39435;BME280;30098;51.880;-0.518;2022-10-19T05:42:34;101438.22;;;18.08;46.01
39435;BME280;30098;51.880;-0.518;2022-10-19T05:45:00;101430.03;;;18.08;45.78
39435;BME280;30098;51.880;-0.518;2022-10-19T05:47:25;101426.22;;;18.09;46.06
39435;BME280;30098;51.880;-0.518;2022-10-19T05:49:51;101422.13;;;18.07;45.87
39435;BME280;30098;51.880;-0.518;2022-10-19T05:52:16;101430.84;;;18.09;45.76
39435;BME280;30098;51.880;-0.518;2022-10-19T05:54:42;101425.66;;;18.07;45.66
39435;BME280;30098;51.880;-0.518;2022-10-19T05:57:07;101422.94;;;18.07;45.90
39435;BME280;30098;51.880;-0.518;2022-10-19T05:59:33;101414.78;;;18.02;45.75
39435;BME280;30098;51.880;-0.518;2022-10-19T06:01:58;101420.22;;;18.07;46.05
39435;BME280;30098;51.880;-0.518;2022-10-19T06:04:24;101417.50;;;18.07;45.77
39435;BME280;30098;51.880;-0.518;2022-10-19T06:06:49;101410.41;;;18.06;45.75
39435;BME280;30098;51.880;-0.518;2022-10-19T06:09:15;101399.50;;;18.06;45.76
39435;BME280;30098;51.880;-0.518;2022-10-19T06:11:41;101398.69;;;18.06;46.03
39435;BME280;30098;51.880;-0.518;2022-10-19T06:14:11;101372.28;;;17.91;45.83
39435;BME280;30098;51.880;-0.518;2022-10-19T06:16:37;101400.59;;;18.05;46.05
39435;BME280;30098;51.880;-0.518;2022-10-19T06:19:03;101407.97;;;18.05;45.77
39435;BME280;30098;51.880;-0.518;2022-10-19T06:21:30;101391.59;;;18.05;45.76
39435;BME280;30098;51.880;-0.518;2022-10-19T06:23:58;101400.59;;;18.05;45.61
39435;BME280;30098;51.880;-0.518;2022-10-19T06:26:25;101399.78;;;18.05;46.01
39435;BME280;30098;51.880;-0.518;2022-10-19T06:28:53;101405.25;;;18.05;45.90
39435;BME280;30098;51.880;-0.518;2022-10-19T06:31:19;101402.50;;;18.05;46.02
39435;BME280;30098;51.880;-0.518;2022-10-19T06:33:45;101379.63;;;17.96;45.96
39435;BME280;30098;51.880;-0.518;2022-10-19T06:36:19;101381.78;;;18.04;45.89
39435;BME280;30098;51.880;-0.518;2022-10-19T06:38:45;101388.03;;;18.04;45.73
39435;BME280;30098;51.880;-0.518;2022-10-19T06:41:11;101389.13;;;18.03;46.02
39435;BME280;30098;51.880;-0.518;2022-10-19T06:43:36;101387.25;;;18.04;46.17
39435;BME280;30098;51.880;-0.518;2022-10-19T06:46:06;101358.97;;;17.84;45.60
39435;BME280;30098;51.880;-0.518;2022-10-19T06:48:33;101379.06;;;18.04;45.81
39435;BME280;30098;51.880;-0.518;2022-10-19T06:51:00;101387.53;;;18.02;46.07
39435;BME280;30098;51.880;-0.518;2022-10-19T06:53:26;101380.97;;;18.03;45.96
39435;BME280;30098;51.880;-0.518;2022-10-19T06:55:57;101375.50;;;18.03;45.98
39435;BME280;30098;51.880;-0.518;2022-10-19T06:58:23;101379.34;;;18.02;45.72
39435;BME280;30098;51.880;-0.518;2022-10-19T07:00:57;101376.63;;;18.02;45.62
39435;BME280;30098;51.880;-0.518;2022-10-19T07:03:24;101365.72;;;18.02;45.91
39435;BME280;30098;51.880;-0.518;2022-10-19T07:05:58;101362.16;;;18.02;45.88
39435;BME280;30098;51.880;-0.518;2022-10-19T07:08:26;101372.25;;;18.01;45.94
39435;BME280;30098;51.880;-0.518;2022-10-19T07:10:53;101364.09;;;18.01;45.57
39435;BME280;30098;51.880;-0.518;2022-10-19T07:13:19;101372.25;;;18.01;45.89
39435;BME280;30098;51.880;-0.518;2022-10-19T07:15:45;101343.38;;;17.90;45.85
39435;BME280;30098;51.880;-0.518;2022-10-19T07:18:10;101362.69;;;18.04;45.66
39435;BME280;30098;51.880;-0.518;2022-10-19T07:20:36;101346.06;;;18.05;45.79
39435;BME280;30098;51.880;-0.518;2022-10-19T07:23:01;101345.75;;;18.07;45.84
39435;BME280;30098;51.880;-0.518;2022-10-19T07:25:27;101334.84;;;18.07;45.73
39435;BME280;30098;51.880;-0.518;2022-10-19T07:27:54;101339.22;;;18.08;45.90
39435;BME280;30098;51.880;-0.518;2022-10-19T07:30:20;101351.47;;;18.10;45.73
39435;BME280;30098;51.880;-0.518;2022-10-19T07:32:45;101314.75;;;17.87;45.78
39435;BME280;30098;51.880;-0.518;2022-10-19T07:35:11;101349.00;;;18.14;45.99
39435;BME280;30098;51.880;-0.518;2022-10-19T07:37:36;101335.34;;;18.14;45.59
39435;BME280;30098;51.880;-0.518;2022-10-19T07:40:03;101304.09;;;17.96;45.77
39435;BME280;30098;51.880;-0.518;2022-10-19T07:42:28;101232.38;;;17.56;45.59
39435;BME280;30098;51.880;-0.518;2022-10-19T07:44:56;101298.66;;;18.01;45.56
39435;BME280;30098;51.880;-0.518;2022-10-19T07:47:22;101321.69;;;18.19;45.64
39435;BME280;30098;51.880;-0.518;2022-10-19T07:49:48;101311.59;;;18.20;45.78
39435;BME280;30098;51.880;-0.518;2022-10-19T07:52:13;101211.13;;;17.58;45.64
39435;BME280;30098;51.880;-0.518;2022-10-19T07:54:39;101302.03;;;18.22;45.58
39435;BME280;30098;51.880;-0.518;2022-10-19T07:57:05;101305.59;;;18.23;45.76
39435;BME280;30098;51.880;-0.518;2022-10-19T07:59:31;101307.22;;;18.24;46.00
39435;BME280;30098;51.880;-0.518;2022-10-19T08:02:00;101305.00;;;18.26;45.79
39435;BME280;30098;51.880;-0.518;2022-10-19T08:04:28;101276.22;;;18.09;46.10
39435;BME280;30098;51.880;-0.518;2022-10-19T08:06:54;101308.56;;;18.27;46.19
39435;BME280;30098;51.880;-0.518;2022-10-19T08:09:20;101320.28;;;18.27;45.88
39435;BME280;30098;51.880;-0.518;2022-10-19T08:11:45;101225.75;;;17.67;46.92
39435;BME280;30098;51.880;-0.518;2022-10-19T08:14:12;101318.09;;;18.29;47.23
39435;BME280;30098;51.880;-0.518;2022-10-19T08:16:39;101317.25;;;18.29;47.96
39435;BME280;30098;51.880;-0.518;2022-10-19T08:19:08;101320.53;;;18.31;48.43
39435;BME280;30098;51.880;-0.518;2022-10-19T08:21:38;101319.44;;;18.32;48.42
39435;BME280;30098;51.880;-0.518;2022-10-19T08:24:05;101306.59;;;18.32;48.22
39435;BME280;30098;51.880;-0.518;2022-10-19T08:26:34;101307.44;;;18.33;48.14
39435;BME280;30098;51.880;-0.518;2022-10-19T08:29:08;101316.94;;;18.35;47.80
39435;BME280;30098;51.880;-0.518;2022-10-19T08:31:39;101223.25;;;17.76;47.83
39435;BME280;30098;51.880;-0.518;2022-10-19T08:34:06;101316.38;;;18.38;47.59
39435;BME280;30098;51.880;-0.518;2022-10-19T08:36:32;101312.28;;;18.41;47.17
39435;BME280;30098;51.880;-0.518;2022-10-19T08:39:02;101305.75;;;18.37;47.45
39435;BME280;30098;51.880;-0.518;2022-10-19T08:49:41;101297.72;;;18.51;48.27
39435;BME280;30098;51.880;-0.518;2022-10-19T08:52:20;101183.88;;;17.92;48.34
39435;BME280;30098;51.880;-0.518;2022-10-19T08:54:55;101190.38;;;18.02;48.21
39435;BME280;30098;51.880;-0.518;2022-10-19T09:05:33;101284.91;;;18.81;47.71
39435;BME280;30098;51.880;-0.518;2022-10-19T09:08:11;101280.22;;;18.86;48.00
39435;BME280;30098;51.880;-0.518;2022-10-19T09:10:43;101268.72;;;18.89;47.70
39435;BME280;30098;51.880;-0.518;2022-10-19T09:13:41;101276.00;;;18.99;47.65
39435;BME280;30098;51.880;-0.518;2022-10-19T09:16:12;101256.94;;;18.94;47.31
39435;BME280;30098;51.880;-0.518;2022-10-19T09:18:39;101172.06;;;18.37;47.07
39435;BME280;30098;51.880;-0.518;2022-10-19T09:23:53;101278.34;;;19.11;46.97
39435;BME280;30098;51.880;-0.518;2022-10-19T09:26:27;101268.50;;;19.10;47.00
39435;BME280;30098;51.880;-0.518;2022-10-19T09:29:28;101278.28;;;19.16;47.23
39435;BME280;30098;51.880;-0.518;2022-10-19T09:31:58;101270.66;;;19.13;47.28
39435;BME280;30098;51.880;-0.518;2022-10-19T09:34:38;101283.75;;;19.16;47.49
39435;BME280;30098;51.880;-0.518;2022-10-19T09:37:06;101283.78;;;19.11;47.55
39435;BME280;30098;51.880;-0.518;2022-10-19T09:39:32;101267.72;;;19.10;48.06
39435;BME280;30098;51.880;-0.518;2022-10-19T09:42:31;101102.38;;;17.96;48.01
39435;BME280;30098;51.880;-0.518;2022-10-19T09:45:13;101289.16;;;19.22;47.81
39435;BME280;30098;51.880;-0.518;2022-10-19T09:47:45;101287.81;;;19.19;47.56
39435;BME280;30098;51.880;-0.518;2022-10-19T09:50:25;101281.50;;;19.24;47.49
39435;BME280;30098;51.880;-0.518;2022-10-19T09:53:03;101192.19;;;18.70;47.49
39435;BME280;30098;51.880;-0.518;2022-10-19T09:55:56;101273.75;;;19.31;47.55
39435;BME280;30098;51.880;-0.518;2022-10-19T09:58:24;101266.88;;;19.33;47.01
39435;BME280;30098;51.880;-0.518;2022-10-19T10:00:52;101257.88;;;19.33;46.90
39435;BME280;30098;51.880;-0.518;2022-10-19T10:05:48;101241.78;;;19.31;46.85
39435;BME280;30098;51.880;-0.518;2022-10-19T10:08:17;101257.75;;;19.43;46.97
39435;BME280;30098;51.880;-0.518;2022-10-19T10:10:46;101255.53;;;19.45;47.02
39435;BME280;30098;51.880;-0.518;2022-10-19T10:13:24;101241.94;;;19.40;46.70
39435;BME280;30098;51.880;-0.518;2022-10-19T10:15:55;101234.19;;;19.47;46.42
39435;BME280;30098;51.880;-0.518;2022-10-19T10:18:22;101237.13;;;19.51;46.65
39435;BME280;30098;51.880;-0.518;2022-10-19T10:21:02;101231.91;;;19.55;46.90
39435;BME280;30098;51.880;-0.518;2022-10-19T10:23:31;101145.53;;;18.96;46.86
39435;BME280;30098;51.880;-0.518;2022-10-19T10:26:00;101238.69;;;19.57;46.89
39435;BME280;30098;51.880;-0.518;2022-10-19T10:28:28;101242.25;;;19.58;46.92
39435;BME280;30098;51.880;-0.518;2022-10-19T10:33:26;101264.69;;;19.55;47.66
39435;BME280;30098;51.880;-0.518;2022-10-19T10:35:56;101234.94;;;19.53;47.90
39435;BME280;30098;51.880;-0.518;2022-10-19T10:38:29;101199.81;;;19.22;47.98
39435;BME280;30098;51.880;-0.518;2022-10-19T10:41:02;101232.28;;;19.48;48.06
39435;BME280;30098;51.880;-0.518;2022-10-19T10:43:31;101223.56;;;19.46;48.00
39435;BME280;30098;51.880;-0.518;2022-10-19T10:46:02;101234.19;;;19.47;48.42
39435;BME280;30098;51.880;-0.518;2022-10-19T10:48:40;101239.06;;;19.50;48.50
39435;BME280;30098;51.880;-0.518;2022-10-19T10:51:17;101144.47;;;18.92;48.41
39435;BME280;30098;51.880;-0.518;2022-10-19T10:53:44;101205.91;;;19.38;48.09
39435;BME280;30098;51.880;-0.518;2022-10-19T10:56:28;101240.84;;;19.60;47.80
39435;BME280;30098;51.880;-0.518;2022-10-19T11:01:27;101230.56;;;19.71;47.62
39435;BME280;30098;51.880;-0.518;2022-10-19T11:04:03;101226.44;;;19.74;47.44
39435;BME280;30098;51.880;-0.518;2022-10-19T11:06:33;101240.94;;;19.74;47.42
39435;BME280;30098;51.880;-0.518;2022-10-19T11:09:09;101243.66;;;19.74;47.51
39435;BME280;30098;51.880;-0.518;2022-10-19T11:11:44;101213.72;;;19.64;47.25
39435;BME280;30098;51.880;-0.518;2022-10-19T11:17:02;101192.00;;;19.73;47.32
39435;BME280;30098;51.880;-0.518;2022-10-19T11:19:39;101199.41;;;19.72;47.17
39435;BME280;30098;51.880;-0.518;2022-10-19T11:28:16;101160.31;;;19.72;47.21
39435;BME280;30098;51.880;-0.518;2022-10-19T11:34:09;101147.59;;;19.81;46.69
39435;BME280;30098;51.880;-0.518;2022-10-19T11:42:46;101113.59;;;19.87;46.43
39435;BME280;30098;51.880;-0.518;2022-10-19T11:48:38;101121.22;;;19.90;46.27
39435;BME280;30098;51.880;-0.518;2022-10-19T11:50:59;101094.78;;;19.86;46.21
39435;BME280;30098;51.880;-0.518;2022-10-19T11:57:37;101104.22;;;19.93;46.04
39435;BME280;30098;51.880;-0.518;2022-10-19T12:05:03;101070.47;;;19.98;46.33
39435;BME280;30098;51.880;-0.518;2022-10-19T12:13:19;101042.16;;;20.08;45.97
39435;BME280;30098;51.880;-0.518;2022-10-19T12:15:49;100953.53;;;19.62;46.05
39435;BME280;30098;51.880;-0.518;2022-10-19T12:18:36;101020.69;;;20.15;45.65
39435;BME280;30098;51.880;-0.518;2022-10-19T12:21:09;100996.03;;;20.01;45.48
39435;BME280;30098;51.880;-0.518;2022-10-19T12:23:41;101023.50;;;20.24;45.71
39435;BME280;30098;51.880;-0.518;2022-10-19T12:26:13;101024.81;;;20.26;45.45
39435;BME280;30098;51.880;-0.518;2022-10-19T12:28:42;101004.03;;;20.25;45.41
39435;BME280;30098;51.880;-0.518;2022-10-19T12:31:11;100992.91;;;20.22;45.42
39435;BME280;30098;51.880;-0.518;2022-10-19T12:39:40;100970.09;;;20.26;45.45
39435;BME280;30098;51.880;-0.518;2022-10-19T12:45:07;100961.28;;;20.29;45.26
39435;BME280;30098;51.880;-0.518;2022-10-19T12:47:36;100940.22;;;20.16;44.84
39435;BME280;30098;51.880;-0.518;2022-10-19T12:50:02;100969.19;;;20.31;44.72
39435;BME280;30098;51.880;-0.518;2022-10-19T12:52:45;100957.94;;;20.33;45.08
39435;BME280;30098;51.880;-0.518;2022-10-19T12:57:43;100933.22;;;20.24;44.98
39435;BME280;30098;51.880;-0.518;2022-10-19T13:00:22;100926.41;;;20.35;45.03
39435;BME280;30098;51.880;-0.518;2022-10-19T13:02:57;100913.44;;;20.27;44.74
39435;BME280;30098;51.880;-0.518;2022-10-19T13:05:25;100917.06;;;20.36;44.87
39435;BME280;30098;51.880;-0.518;2022-10-19T13:07:52;100904.13;;;20.28;44.96
39435;BME280;30098;51.880;-0.518;2022-10-19T13:10:21;100912.44;;;20.37;44.66
39435;BME280;30098;51.880;-0.518;2022-10-19T13:12:48;100884.28;;;20.22;44.64
39435;BME280;30098;51.880;-0.518;2022-10-19T13:18:03;100905.03;;;20.37;44.66
39435;BME280;30098;51.880;-0.518;2022-10-19T13:25:29;100858.53;;;20.23;44.46
39435;BME280;30098;51.880;-0.518;2022-10-19T13:38:31;100847.88;;;20.36;44.49
39435;BME280;30098;51.880;-0.518;2022-10-19T13:52:01;100820.88;;;20.43;44.79
39435;BME280;30098;51.880;-0.518;2022-10-19T13:57:29;100804.94;;;20.45;44.67
39435;BME280;30098;51.880;-0.518;2022-10-19T14:00:20;100806.75;;;20.50;44.61
39435;BME280;30098;51.880;-0.518;2022-10-19T14:10:58;100784.00;;;20.63;44.13
39435;BME280;30098;51.880;-0.518;2022-10-19T14:13:25;100771.88;;;20.55;44.25
39435;BME280;30098;51.880;-0.518;2022-10-19T14:15:54;100772.53;;;20.61;44.04
39435;BME280;30098;51.880;-0.518;2022-10-19T14:18:26;100778.53;;;20.63;44.28
39435;BME280;30098;51.880;-0.518;2022-10-19T14:20:59;100770.00;;;20.65;44.58
39435;BME280;30098;51.880;-0.518;2022-10-19T14:23:28;100757.94;;;20.66;44.20
39435;BME280;30098;51.880;-0.518;2022-10-19T14:26:12;100739.19;;;20.59;44.14
39435;BME280;30098;51.880;-0.518;2022-10-19T14:28:39;100735.16;;;20.56;43.67
39435;BME280;30098;51.880;-0.518;2022-10-19T14:31:10;100764.16;;;20.57;43.70
39435;BME280;30098;51.880;-0.518;2022-10-19T14:33:45;100770.97;;;20.69;43.49
39435;BME280;30098;51.880;-0.518;2022-10-19T14:36:18;100760.84;;;20.69;43.69
39435;BME280;30098;51.880;-0.518;2022-10-19T14:38:47;100758.09;;;20.69;43.71
39435;BME280;30098;51.880;-0.518;2022-10-19T14:43:50;100776.03;;;20.75;43.99
39435;BME280;30098;51.880;-0.518;2022-10-19T14:46:16;100764.44;;;20.78;44.02
39435;BME280;30098;51.880;-0.518;2022-10-19T14:48:46;100763.16;;;20.76;43.73
39435;BME280;30098;51.880;-0.518;2022-10-19T14:51:19;100755.94;;;20.80;42.79
39435;BME280;30098;51.880;-0.518;2022-10-19T14:53:51;100767.19;;;20.78;42.62
39435;BME280;30098;51.880;-0.518;2022-10-19T14:56:33;100751.91;;;20.77;42.40
39435;BME280;30098;51.880;-0.518;2022-10-19T14:59:38;100742.88;;;20.77;42.14
39435;BME280;30098;51.880;-0.518;2022-10-19T15:02:20;100740.94;;;20.77;41.94
39435;BME280;30098;51.880;-0.518;2022-10-19T15:04:47;100744.63;;;20.73;42.01
39435;BME280;30098;51.880;-0.518;2022-10-19T15:07:24;100742.78;;;20.68;42.12
39435;BME280;30098;51.880;-0.518;2022-10-19T15:09:57;100733.28;;;20.66;42.22
39435;BME280;30098;51.880;-0.518;2022-10-19T15:12:28;100731.00;;;20.59;42.55
39435;BME280;30098;51.880;-0.518;2022-10-19T15:14:55;100734.72;;;20.63;42.47
39435;BME280;30098;51.880;-0.518;2022-10-19T15:17:27;100741.63;;;20.60;43.20